sensor_id;sensor_type;location;lat;lon;timestamp;temperature;humidity
25128;DHT22;13107;51.304;6.866;2023-06-26T00:01:36;21.20;99.90
25128;DHT22;13107;51.304;6.866;2023-06-26T00:05:38;21.20;99.90
25128;DHT22;13107;51.304;6.866;2023-06-26T00:09:40;21.10;99.90
25128;DHT22;13107;51.304;6.866;2023-06-26T00:13:42;21.10;99.90
25128;DHT22;13107;51.304;6.866;2023-06-26T00:17:44;21.10;99.90
25128;DHT22;13107;51.304;6.866;2023-06-26T00:21:46;21.10;99.90
25128;DHT22;13107;51.304;6.866;2023-06-26T00:25:49;21.10;99.90
25128;DHT22;13107;51.304;6.866;2023-06-26T00:29:51;21.00;99.90
25128;DHT22;13107;51.304;6.866;2023-06-26T00:33:54;21.00;99.90
25128;DHT22;13107;51.304;6.866;2023-06-26T00:37:56;21.00;99.90
25128;DHT22;13107;51.304;6.866;2023-06-26T00:41:57;20.90;99.90
25128;DHT22;13107;51.304;6.866;2023-06-26T00:45:59;20.80;99.90
25128;DHT22;13107;51.304;6.866;2023-06-26T00:50:01;20.60;99.90
25128;DHT22;13107;51.304;6.866;2023-06-26T00:54:03;20.60;99.90
25128;DHT22;13107;51.304;6.866;2023-06-26T00:58:05;20.40;99.90
25128;DHT22;13107;51.304;6.866;2023-06-26T01:02:07;20.30;99.90
25128;DHT22;13107;51.304;6.866;2023-06-26T01:06:11;20.20;99.90
25128;DHT22;13107;51.304;6.866;2023-06-26T01:10:15;20.10;99.90
25128;DHT22;13107;51.304;6.866;2023-06-26T01:14:17;20.10;99.90
25128;DHT22;13107;51.304;6.866;2023-06-26T01:18:19;20.10;99.90
25128;DHT22;13107;51.304;6.866;2023-06-26T01:26:36;20.10;99.90
25128;DHT22;13107;51.304;6.866;2023-06-26T01:30:42;20.00;99.90
25128;DHT22;13107;51.304;6.866;2023-06-26T01:34:45;19.90;99.90
25128;DHT22;13107;51.304;6.866;2023-06-26T01:38:47;19.90;99.90
25128;DHT22;13107;51.304;6.866;2023-06-26T01:42:49;19.90;99.90
25128;DHT22;13107;51.304;6.866;2023-06-26T01:47:12;19.80;99.90
25128;DHT22;13107;51.304;6.866;2023-06-26T01:51:21;19.80;99.90
25128;DHT22;13107;51.304;6.866;2023-06-26T01:55:42;19.80;99.90
25128;DHT22;13107;51.304;6.866;2023-06-26T01:59:46;19.90;99.90
25128;DHT22;13107;51.304;6.866;2023-06-26T02:03:48;19.80;99.90
25128;DHT22;13107;51.304;6.866;2023-06-26T02:07:50;19.80;99.90
25128;DHT22;13107;51.304;6.866;2023-06-26T02:11:52;19.80;99.90
25128;DHT22;13107;51.304;6.866;2023-06-26T02:15:54;19.70;99.90
25128;DHT22;13107;51.304;6.866;2023-06-26T02:19:56;19.70;99.90
25128;DHT22;13107;51.304;6.866;2023-06-26T02:23:58;19.70;99.90
25128;DHT22;13107;51.304;6.866;2023-06-26T02:28:00;19.70;99.90
25128;DHT22;13107;51.304;6.866;2023-06-26T02:32:02;19.60;99.90
25128;DHT22;13107;51.304;6.866;2023-06-26T02:36:04;19.60;99.90
25128;DHT22;13107;51.304;6.866;2023-06-26T02:40:06;19.70;99.90
25128;DHT22;13107;51.304;6.866;2023-06-26T02:44:09;19.60;99.90
25128;DHT22;13107;51.304;6.866;2023-06-26T02:48:13;19.50;99.90
25128;DHT22;13107;51.304;6.866;2023-06-26T02:52:14;19.60;99.90
25128;DHT22;13107;51.304;6.866;2023-06-26T02:56:16;19.50;99.90
25128;DHT22;13107;51.304;6.866;2023-06-26T03:00:18;19.50;99.90
25128;DHT22;13107;51.304;6.866;2023-06-26T03:04:20;19.40;99.90
25128;DHT22;13107;51.304;6.866;2023-06-26T03:08:23;19.30;99.90
25128;DHT22;13107;51.304;6.866;2023-06-26T03:12:25;19.30;99.90
25128;DHT22;13107;51.304;6.866;2023-06-26T03:16:27;19.30;99.90
25128;DHT22;13107;51.304;6.866;2023-06-26T03:20:29;19.40;99.90
25128;DHT22;13107;51.304;6.866;2023-06-26T03:24:31;19.50;99.90
25128;DHT22;13107;51.304;6.866;2023-06-26T03:28:32;19.60;99.90
25128;DHT22;13107;51.304;6.866;2023-06-26T03:32:34;19.50;99.90
25128;DHT22;13107;51.304;6.866;2023-06-26T03:36:36;19.50;99.90
25128;DHT22;13107;51.304;6.866;2023-06-26T03:40:38;19.60;99.90
25128;DHT22;13107;51.304;6.866;2023-06-26T03:44:40;19.70;99.90
25128;DHT22;13107;51.304;6.866;2023-06-26T03:48:42;19.80;99.90
25128;DHT22;13107;51.304;6.866;2023-06-26T03:52:44;19.90;99.90
25128;DHT22;13107;51.304;6.866;2023-06-26T03:56:46;20.20;99.90
25128;DHT22;13107;51.304;6.866;2023-06-26T04:00:47;20.30;99.90
25128;DHT22;13107;51.304;6.866;2023-06-26T04:04:49;20.40;99.90
25128;DHT22;13107;51.304;6.866;2023-06-26T04:08:51;20.40;99.90
25128;DHT22;13107;51.304;6.866;2023-06-26T04:12:53;20.50;99.90
25128;DHT22;13107;51.304;6.866;2023-06-26T04:16:55;20.60;99.90
25128;DHT22;13107;51.304;6.866;2023-06-26T04:21:11;20.60;99.90
25128;DHT22;13107;51.304;6.866;2023-06-26T04:25:13;20.70;99.90
25128;DHT22;13107;51.304;6.866;2023-06-26T04:29:15;20.80;99.90
25128;DHT22;13107;51.304;6.866;2023-06-26T04:33:17;20.80;99.90
25128;DHT22;13107;51.304;6.866;2023-06-26T04:37:19;20.90;99.90
25128;DHT22;13107;51.304;6.866;2023-06-26T04:41:21;21.00;99.90
25128;DHT22;13107;51.304;6.866;2023-06-26T04:45:23;21.10;99.90
25128;DHT22;13107;51.304;6.866;2023-06-26T04:49:25;21.20;99.90
25128;DHT22;13107;51.304;6.866;2023-06-26T04:53:29;21.30;99.90
25128;DHT22;13107;51.304;6.866;2023-06-26T04:57:31;21.40;99.90
25128;DHT22;13107;51.304;6.866;2023-06-26T05:01:32;21.40;99.90
25128;DHT22;13107;51.304;6.866;2023-06-26T05:05:34;21.40;99.90
25128;DHT22;13107;51.304;6.866;2023-06-26T05:09:36;21.60;99.90
25128;DHT22;13107;51.304;6.866;2023-06-26T05:13:38;21.70;99.90
25128;DHT22;13107;51.304;6.866;2023-06-26T05:17:40;21.80;99.90
25128;DHT22;13107;51.304;6.866;2023-06-26T05:21:41;21.90;99.90
25128;DHT22;13107;51.304;6.866;2023-06-26T05:25:43;21.80;99.90
25128;DHT22;13107;51.304;6.866;2023-06-26T05:29:45;21.70;99.90
25128;DHT22;13107;51.304;6.866;2023-06-26T05:33:48;21.60;99.90
25128;DHT22;13107;51.304;6.866;2023-06-26T05:37:51;21.40;99.90
25128;DHT22;13107;51.304;6.866;2023-06-26T05:41:53;21.20;99.90
25128;DHT22;13107;51.304;6.866;2023-06-26T05:45:56;21.10;99.90
25128;DHT22;13107;51.304;6.866;2023-06-26T05:49:59;21.20;99.90
25128;DHT22;13107;51.304;6.866;2023-06-26T05:54:01;21.60;99.90
25128;DHT22;13107;51.304;6.866;2023-06-26T05:58:03;22.20;99.90
25128;DHT22;13107;51.304;6.866;2023-06-26T06:02:05;22.30;99.90
25128;DHT22;13107;51.304;6.866;2023-06-26T06:06:07;22.30;99.90
25128;DHT22;13107;51.304;6.866;2023-06-26T06:10:09;22.00;99.90
25128;DHT22;13107;51.304;6.866;2023-06-26T06:14:11;21.80;99.90
25128;DHT22;13107;51.304;6.866;2023-06-26T06:18:13;21.90;99.90
25128;DHT22;13107;51.304;6.866;2023-06-26T06:22:14;21.90;99.90
25128;DHT22;13107;51.304;6.866;2023-06-26T06:26:17;21.80;99.90
25128;DHT22;13107;51.304;6.866;2023-06-26T06:30:19;21.40;99.90
25128;DHT22;13107;51.304;6.866;2023-06-26T06:34:41;21.00;99.90
25128;DHT22;13107;51.304;6.866;2023-06-26T06:38:43;20.90;99.90
25128;DHT22;13107;51.304;6.866;2023-06-26T06:42:45;21.10;99.90
25128;DHT22;13107;51.304;6.866;2023-06-26T06:46:47;21.30;99.90
25128;DHT22;13107;51.304;6.866;2023-06-26T06:50:49;21.40;99.90
25128;DHT22;13107;51.304;6.866;2023-06-26T06:54:54;21.40;99.90
25128;DHT22;13107;51.304;6.866;2023-06-26T06:58:56;21.40;99.90
25128;DHT22;13107;51.304;6.866;2023-06-26T07:02:58;21.40;99.90
25128;DHT22;13107;51.304;6.866;2023-06-26T07:07:02;21.70;99.90
25128;DHT22;13107;51.304;6.866;2023-06-26T07:11:04;22.00;99.90
25128;DHT22;13107;51.304;6.866;2023-06-26T07:15:06;22.10;99.90
25128;DHT22;13107;51.304;6.866;2023-06-26T07:19:08;22.10;99.90
25128;DHT22;13107;51.304;6.866;2023-06-26T07:23:10;22.00;99.90
25128;DHT22;13107;51.304;6.866;2023-06-26T07:27:12;22.00;99.90
25128;DHT22;13107;51.304;6.866;2023-06-26T07:31:13;22.20;99.90
25128;DHT22;13107;51.304;6.866;2023-06-26T07:35:18;22.40;99.90
25128;DHT22;13107;51.304;6.866;2023-06-26T07:39:20;22.30;99.90
25128;DHT22;13107;51.304;6.866;2023-06-26T07:43:24;22.30;99.90
25128;DHT22;13107;51.304;6.866;2023-06-26T07:47:26;22.20;99.90
25128;DHT22;13107;51.304;6.866;2023-06-26T07:51:28;22.20;99.90
25128;DHT22;13107;51.304;6.866;2023-06-26T07:55:30;22.20;99.90
25128;DHT22;13107;51.304;6.866;2023-06-26T07:59:31;22.10;99.90
25128;DHT22;13107;51.304;6.866;2023-06-26T08:03:33;22.20;99.90
25128;DHT22;13107;51.304;6.866;2023-06-26T08:07:36;22.10;99.90
25128;DHT22;13107;51.304;6.866;2023-06-26T08:11:38;22.00;99.90
25128;DHT22;13107;51.304;6.866;2023-06-26T08:15:40;22.10;99.90
25128;DHT22;13107;51.304;6.866;2023-06-26T08:19:43;22.40;99.90
25128;DHT22;13107;51.304;6.866;2023-06-26T08:23:45;22.80;99.90
25128;DHT22;13107;51.304;6.866;2023-06-26T08:27:46;22.70;99.90
25128;DHT22;13107;51.304;6.866;2023-06-26T08:31:48;22.50;99.90
25128;DHT22;13107;51.304;6.866;2023-06-26T08:35:50;22.50;99.90
25128;DHT22;13107;51.304;6.866;2023-06-26T08:39:52;22.50;99.90
25128;DHT22;13107;51.304;6.866;2023-06-26T08:43:54;22.10;99.90
25128;DHT22;13107;51.304;6.866;2023-06-26T08:47:59;21.80;99.90
25128;DHT22;13107;51.304;6.866;2023-06-26T08:52:10;22.00;99.90
25128;DHT22;13107;51.304;6.866;2023-06-26T08:56:16;22.30;99.90
25128;DHT22;13107;51.304;6.866;2023-06-26T09:00:19;22.50;99.90
25128;DHT22;13107;51.304;6.866;2023-06-26T09:04:21;23.00;99.90
25128;DHT22;13107;51.304;6.866;2023-06-26T09:08:23;23.20;99.90
25128;DHT22;13107;51.304;6.866;2023-06-26T09:12:27;23.20;99.90
25128;DHT22;13107;51.304;6.866;2023-06-26T09:16:29;23.10;99.90
25128;DHT22;13107;51.304;6.866;2023-06-26T09:20:31;23.30;99.90
25128;DHT22;13107;51.304;6.866;2023-06-26T09:24:36;23.00;99.90
25128;DHT22;13107;51.304;6.866;2023-06-26T09:28:38;23.40;99.90
25128;DHT22;13107;51.304;6.866;2023-06-26T09:32:40;23.50;99.90
25128;DHT22;13107;51.304;6.866;2023-06-26T09:36:42;23.50;99.90
25128;DHT22;13107;51.304;6.866;2023-06-26T09:40:48;23.70;99.90
25128;DHT22;13107;51.304;6.866;2023-06-26T09:44:50;24.50;99.90
25128;DHT22;13107;51.304;6.866;2023-06-26T09:49:05;24.70;99.90
25128;DHT22;13107;51.304;6.866;2023-06-26T09:53:08;24.60;99.90
25128;DHT22;13107;51.304;6.866;2023-06-26T09:57:19;24.60;99.90
25128;DHT22;13107;51.304;6.866;2023-06-26T10:01:20;24.30;99.90
25128;DHT22;13107;51.304;6.866;2023-06-26T10:05:22;24.60;99.90
25128;DHT22;13107;51.304;6.866;2023-06-26T10:09:25;25.20;99.90
25128;DHT22;13107;51.304;6.866;2023-06-26T10:13:37;24.90;99.90
25128;DHT22;13107;51.304;6.866;2023-06-26T10:17:41;25.10;99.90
25128;DHT22;13107;51.304;6.866;2023-06-26T10:21:44;25.20;99.90
25128;DHT22;13107;51.304;6.866;2023-06-26T10:25:48;25.50;99.90
25128;DHT22;13107;51.304;6.866;2023-06-26T10:29:55;25.60;99.90
25128;DHT22;13107;51.304;6.866;2023-06-26T10:33:58;25.20;99.90
25128;DHT22;13107;51.304;6.866;2023-06-26T10:38:01;25.50;99.90
25128;DHT22;13107;51.304;6.866;2023-06-26T10:42:09;25.40;99.90
25128;DHT22;13107;51.304;6.866;2023-06-26T10:46:15;25.40;99.90
25128;DHT22;13107;51.304;6.866;2023-06-26T10:50:30;25.90;99.90
25128;DHT22;13107;51.304;6.866;2023-06-26T10:54:33;25.90;99.90
25128;DHT22;13107;51.304;6.866;2023-06-26T11:02:52;25.30;99.90
25128;DHT22;13107;51.304;6.866;2023-06-26T11:07:20;24.80;99.90
25128;DHT22;13107;51.304;6.866;2023-06-26T11:15:54;25.60;99.90
25128;DHT22;13107;51.304;6.866;2023-06-26T11:19:58;26.10;99.90
25128;DHT22;13107;51.304;6.866;2023-06-26T11:24:03;25.30;99.90
25128;DHT22;13107;51.304;6.866;2023-06-26T11:28:05;24.10;99.90
25128;DHT22;13107;51.304;6.866;2023-06-26T11:32:07;24.50;99.90
25128;DHT22;13107;51.304;6.866;2023-06-26T11:36:09;24.90;99.90
25128;DHT22;13107;51.304;6.866;2023-06-26T11:40:20;25.30;99.90
25128;DHT22;13107;51.304;6.866;2023-06-26T11:44:23;25.30;98.30
25128;DHT22;13107;51.304;6.866;2023-06-26T11:48:25;25.10;97.00
25128;DHT22;13107;51.304;6.866;2023-06-26T11:52:27;25.40;97.90
25128;DHT22;13107;51.304;6.866;2023-06-26T11:56:29;25.70;99.40
25128;DHT22;13107;51.304;6.866;2023-06-26T12:00:32;25.20;98.10
25128;DHT22;13107;51.304;6.866;2023-06-26T12:04:41;25.10;99.90
25128;DHT22;13107;51.304;6.866;2023-06-26T12:08:43;25.00;99.90
25128;DHT22;13107;51.304;6.866;2023-06-26T12:12:46;24.60;99.50
25128;DHT22;13107;51.304;6.866;2023-06-26T12:16:47;24.50;99.90
25128;DHT22;13107;51.304;6.866;2023-06-26T12:20:49;24.10;99.90
25128;DHT22;13107;51.304;6.866;2023-06-26T12:24:51;23.70;99.90
25128;DHT22;13107;51.304;6.866;2023-06-26T12:28:53;23.90;99.70
25128;DHT22;13107;51.304;6.866;2023-06-26T12:32:55;24.40;99.90
25128;DHT22;13107;51.304;6.866;2023-06-26T12:37:01;24.70;99.00
25128;DHT22;13107;51.304;6.866;2023-06-26T12:41:03;24.50;97.20
25128;DHT22;13107;51.304;6.866;2023-06-26T12:45:12;24.20;94.90
25128;DHT22;13107;51.304;6.866;2023-06-26T12:49:36;24.10;98.50
25128;DHT22;13107;51.304;6.866;2023-06-26T12:53:39;24.30;96.70
25128;DHT22;13107;51.304;6.866;2023-06-26T12:57:44;24.30;95.50
25128;DHT22;13107;51.304;6.866;2023-06-26T13:01:46;25.00;96.00
25128;DHT22;13107;51.304;6.866;2023-06-26T13:05:48;26.00;94.10
25128;DHT22;13107;51.304;6.866;2023-06-26T13:09:49;26.50;92.30
25128;DHT22;13107;51.304;6.866;2023-06-26T13:13:51;26.70;92.40
25128;DHT22;13107;51.304;6.866;2023-06-26T13:18:11;26.20;90.50
25128;DHT22;13107;51.304;6.866;2023-06-26T13:22:13;25.40;87.20
25128;DHT22;13107;51.304;6.866;2023-06-26T13:26:15;24.60;91.10
25128;DHT22;13107;51.304;6.866;2023-06-26T13:30:36;24.40;90.40
25128;DHT22;13107;51.304;6.866;2023-06-26T13:34:38;24.10;93.30
25128;DHT22;13107;51.304;6.866;2023-06-26T13:38:40;24.00;92.40
25128;DHT22;13107;51.304;6.866;2023-06-26T13:42:42;24.00;92.90
25128;DHT22;13107;51.304;6.866;2023-06-26T13:46:46;23.80;93.90
25128;DHT22;13107;51.304;6.866;2023-06-26T13:50:47;23.90;92.50
25128;DHT22;13107;51.304;6.866;2023-06-26T13:54:55;24.00;94.30
25128;DHT22;13107;51.304;6.866;2023-06-26T13:58:57;23.90;92.20
25128;DHT22;13107;51.304;6.866;2023-06-26T14:03:00;24.10;93.70
25128;DHT22;13107;51.304;6.866;2023-06-26T14:07:03;24.60;87.40
25128;DHT22;13107;51.304;6.866;2023-06-26T14:11:05;24.60;87.60
25128;DHT22;13107;51.304;6.866;2023-06-26T14:15:07;24.60;84.90
25128;DHT22;13107;51.304;6.866;2023-06-26T14:19:09;24.70;85.40
25128;DHT22;13107;51.304;6.866;2023-06-26T14:23:16;25.00;86.10
25128;DHT22;13107;51.304;6.866;2023-06-26T14:27:18;25.00;84.30
25128;DHT22;13107;51.304;6.866;2023-06-26T14:31:20;24.90;86.10
25128;DHT22;13107;51.304;6.866;2023-06-26T14:35:22;24.80;86.00
25128;DHT22;13107;51.304;6.866;2023-06-26T14:39:24;24.30;88.80
25128;DHT22;13107;51.304;6.866;2023-06-26T14:43:26;24.60;90.70
25128;DHT22;13107;51.304;6.866;2023-06-26T14:47:29;24.50;88.30
25128;DHT22;13107;51.304;6.866;2023-06-26T14:51:31;24.90;84.40
25128;DHT22;13107;51.304;6.866;2023-06-26T14:55:32;25.10;84.70
25128;DHT22;13107;51.304;6.866;2023-06-26T14:59:34;24.40;85.20
25128;DHT22;13107;51.304;6.866;2023-06-26T15:03:36;23.60;90.80
25128;DHT22;13107;51.304;6.866;2023-06-26T15:07:38;23.50;90.70
25128;DHT22;13107;51.304;6.866;2023-06-26T15:11:40;23.30;89.60
25128;DHT22;13107;51.304;6.866;2023-06-26T15:15:41;23.20;90.80
25128;DHT22;13107;51.304;6.866;2023-06-26T15:19:43;23.20;87.90
25128;DHT22;13107;51.304;6.866;2023-06-26T15:23:46;23.40;90.50
25128;DHT22;13107;51.304;6.866;2023-06-26T15:27:48;23.30;89.10
25128;DHT22;13107;51.304;6.866;2023-06-26T15:31:52;23.00;89.10
25128;DHT22;13107;51.304;6.866;2023-06-26T15:35:55;22.80;91.00
25128;DHT22;13107;51.304;6.866;2023-06-26T15:39:57;22.80;90.50
25128;DHT22;13107;51.304;6.866;2023-06-26T15:43:59;22.90;91.70
25128;DHT22;13107;51.304;6.866;2023-06-26T15:48:01;22.80;90.60
25128;DHT22;13107;51.304;6.866;2023-06-26T15:52:03;22.70;87.60
25128;DHT22;13107;51.304;6.866;2023-06-26T15:56:10;22.60;89.80
25128;DHT22;13107;51.304;6.866;2023-06-26T16:00:12;22.70;91.70
25128;DHT22;13107;51.304;6.866;2023-06-26T16:04:13;22.60;90.00
25128;DHT22;13107;51.304;6.866;2023-06-26T16:08:15;22.50;92.00
25128;DHT22;13107;51.304;6.866;2023-06-26T16:12:17;22.60;91.70
25128;DHT22;13107;51.304;6.866;2023-06-26T16:16:19;22.50;92.10
25128;DHT22;13107;51.304;6.866;2023-06-26T16:20:21;22.50;92.10
25128;DHT22;13107;51.304;6.866;2023-06-26T16:24:23;22.50;91.50
25128;DHT22;13107;51.304;6.866;2023-06-26T16:28:25;22.30;91.60
25128;DHT22;13107;51.304;6.866;2023-06-26T16:32:26;22.20;91.50
25128;DHT22;13107;51.304;6.866;2023-06-26T16:36:28;22.10;92.00
25128;DHT22;13107;51.304;6.866;2023-06-26T16:40:30;21.90;90.70
25128;DHT22;13107;51.304;6.866;2023-06-26T16:44:31;21.80;90.60
25128;DHT22;13107;51.304;6.866;2023-06-26T16:48:33;21.80;90.70
25128;DHT22;13107;51.304;6.866;2023-06-26T16:52:35;21.50;91.20
25128;DHT22;13107;51.304;6.866;2023-06-26T16:56:37;21.30;91.60
25128;DHT22;13107;51.304;6.866;2023-06-26T17:00:39;21.30;92.30
25128;DHT22;13107;51.304;6.866;2023-06-26T17:04:41;21.40;91.10
25128;DHT22;13107;51.304;6.866;2023-06-26T17:08:43;21.40;91.10
25128;DHT22;13107;51.304;6.866;2023-06-26T17:12:45;21.10;91.40
25128;DHT22;13107;51.304;6.866;2023-06-26T17:16:46;21.10;92.30
25128;DHT22;13107;51.304;6.866;2023-06-26T17:20:48;21.10;92.10
25128;DHT22;13107;51.304;6.866;2023-06-26T17:24:50;21.00;91.90
25128;DHT22;13107;51.304;6.866;2023-06-26T17:28:52;21.00;93.50
25128;DHT22;13107;51.304;6.866;2023-06-26T17:32:53;21.00;93.80
25128;DHT22;13107;51.304;6.866;2023-06-26T17:36:56;20.80;94.20
25128;DHT22;13107;51.304;6.866;2023-06-26T17:40:57;20.90;96.50
25128;DHT22;13107;51.304;6.866;2023-06-26T17:44:59;20.80;96.10
25128;DHT22;13107;51.304;6.866;2023-06-26T17:49:01;20.80;97.20
25128;DHT22;13107;51.304;6.866;2023-06-26T17:53:03;20.90;97.70
25128;DHT22;13107;51.304;6.866;2023-06-26T17:57:05;20.80;96.60
25128;DHT22;13107;51.304;6.866;2023-06-26T18:01:07;20.80;98.00
25128;DHT22;13107;51.304;6.866;2023-06-26T18:05:09;20.70;98.00
25128;DHT22;13107;51.304;6.866;2023-06-26T18:09:11;20.70;98.60
25128;DHT22;13107;51.304;6.866;2023-06-26T18:13:13;20.60;99.00
25128;DHT22;13107;51.304;6.866;2023-06-26T18:17:15;20.60;99.90
25128;DHT22;13107;51.304;6.866;2023-06-26T18:21:17;20.60;99.90
25128;DHT22;13107;51.304;6.866;2023-06-26T18:25:18;20.70;99.90
25128;DHT22;13107;51.304;6.866;2023-06-26T18:29:20;20.60;99.90
25128;DHT22;13107;51.304;6.866;2023-06-26T18:33:22;20.60;99.90
25128;DHT22;13107;51.304;6.866;2023-06-26T18:37:23;20.70;99.90
25128;DHT22;13107;51.304;6.866;2023-06-26T18:41:25;20.60;99.90
25128;DHT22;13107;51.304;6.866;2023-06-26T18:45:27;20.50;99.90
25128;DHT22;13107;51.304;6.866;2023-06-26T18:49:29;20.40;99.90
25128;DHT22;13107;51.304;6.866;2023-06-26T18:53:30;20.30;99.90
25128;DHT22;13107;51.304;6.866;2023-06-26T18:57:33;20.10;99.90
25128;DHT22;13107;51.304;6.866;2023-06-26T19:01:34;20.10;99.90
25128;DHT22;13107;51.304;6.866;2023-06-26T19:05:36;20.00;99.90
25128;DHT22;13107;51.304;6.866;2023-06-26T19:09:38;20.00;99.90
25128;DHT22;13107;51.304;6.866;2023-06-26T19:13:40;20.00;99.90
25128;DHT22;13107;51.304;6.866;2023-06-26T19:17:42;20.00;99.90
25128;DHT22;13107;51.304;6.866;2023-06-26T19:21:43;19.90;99.90
25128;DHT22;13107;51.304;6.866;2023-06-26T19:25:46;19.80;99.90
25128;DHT22;13107;51.304;6.866;2023-06-26T19:29:48;19.70;99.90
25128;DHT22;13107;51.304;6.866;2023-06-26T19:33:49;19.60;99.90
25128;DHT22;13107;51.304;6.866;2023-06-26T19:37:51;19.50;99.90
25128;DHT22;13107;51.304;6.866;2023-06-26T19:42:06;19.30;99.90
25128;DHT22;13107;51.304;6.866;2023-06-26T19:46:08;19.10;99.90
25128;DHT22;13107;51.304;6.866;2023-06-26T19:50:10;19.00;99.90
25128;DHT22;13107;51.304;6.866;2023-06-26T19:54:14;18.80;99.90
25128;DHT22;13107;51.304;6.866;2023-06-26T19:58:15;18.60;99.90
25128;DHT22;13107;51.304;6.866;2023-06-26T20:02:17;18.50;99.90
25128;DHT22;13107;51.304;6.866;2023-06-26T20:06:19;18.40;99.90
25128;DHT22;13107;51.304;6.866;2023-06-26T20:10:21;18.30;99.90
25128;DHT22;13107;51.304;6.866;2023-06-26T20:14:22;18.20;99.90
25128;DHT22;13107;51.304;6.866;2023-06-26T20:18:24;18.10;99.90
25128;DHT22;13107;51.304;6.866;2023-06-26T20:22:26;18.10;99.90
25128;DHT22;13107;51.304;6.866;2023-06-26T20:26:28;18.00;99.90
25128;DHT22;13107;51.304;6.866;2023-06-26T20:30:29;18.00;99.90
25128;DHT22;13107;51.304;6.866;2023-06-26T20:34:31;17.90;99.90
25128;DHT22;13107;51.304;6.866;2023-06-26T20:38:33;17.80;99.90
25128;DHT22;13107;51.304;6.866;2023-06-26T20:42:35;17.70;99.90
25128;DHT22;13107;51.304;6.866;2023-06-26T20:46:38;17.50;99.90
25128;DHT22;13107;51.304;6.866;2023-06-26T20:50:40;17.30;99.90
25128;DHT22;13107;51.304;6.866;2023-06-26T20:54:42;17.10;99.90
25128;DHT22;13107;51.304;6.866;2023-06-26T20:58:44;16.80;99.90
25128;DHT22;13107;51.304;6.866;2023-06-26T21:02:46;16.70;99.90
25128;DHT22;13107;51.304;6.866;2023-06-26T21:06:48;16.50;99.90
25128;DHT22;13107;51.304;6.866;2023-06-26T21:10:49;16.40;99.90
25128;DHT22;13107;51.304;6.866;2023-06-26T21:14:51;16.10;99.90
25128;DHT22;13107;51.304;6.866;2023-06-26T21:18:53;16.10;99.90
25128;DHT22;13107;51.304;6.866;2023-06-26T21:22:55;15.90;99.90
25128;DHT22;13107;51.304;6.866;2023-06-26T21:26:57;15.90;99.90
25128;DHT22;13107;51.304;6.866;2023-06-26T21:30:58;15.70;99.90
25128;DHT22;13107;51.304;6.866;2023-06-26T21:35:00;15.50;99.90
25128;DHT22;13107;51.304;6.866;2023-06-26T21:39:02;15.40;99.90
25128;DHT22;13107;51.304;6.866;2023-06-26T21:43:04;15.20;99.90
25128;DHT22;13107;51.304;6.866;2023-06-26T21:47:06;15.20;99.90
25128;DHT22;13107;51.304;6.866;2023-06-26T21:51:07;15.00;99.90
25128;DHT22;13107;51.304;6.866;2023-06-26T21:55:10;14.90;99.90
25128;DHT22;13107;51.304;6.866;2023-06-26T21:59:11;14.70;99.90
25128;DHT22;13107;51.304;6.866;2023-06-26T22:03:13;14.60;99.90
25128;DHT22;13107;51.304;6.866;2023-06-26T22:07:15;14.60;99.90
25128;DHT22;13107;51.304;6.866;2023-06-26T22:11:17;14.40;99.90
25128;DHT22;13107;51.304;6.866;2023-06-26T22:15:18;14.30;99.90
25128;DHT22;13107;51.304;6.866;2023-06-26T22:19:20;14.20;99.90
25128;DHT22;13107;51.304;6.866;2023-06-26T22:23:22;14.20;99.90
25128;DHT22;13107;51.304;6.866;2023-06-26T22:27:24;14.00;99.90
25128;DHT22;13107;51.304;6.866;2023-06-26T22:31:25;13.90;99.90
25128;DHT22;13107;51.304;6.866;2023-06-26T22:35:27;13.80;99.90
25128;DHT22;13107;51.304;6.866;2023-06-26T22:39:29;13.70;99.90
25128;DHT22;13107;51.304;6.866;2023-06-26T22:43:30;13.60;99.90
25128;DHT22;13107;51.304;6.866;2023-06-26T22:47:32;13.60;99.90
25128;DHT22;13107;51.304;6.866;2023-06-26T22:51:34;13.50;99.90
25128;DHT22;13107;51.304;6.866;2023-06-26T22:55:36;13.40;99.90
25128;DHT22;13107;51.304;6.866;2023-06-26T22:59:38;13.40;99.90
25128;DHT22;13107;51.304;6.866;2023-06-26T23:03:41;13.30;99.90
25128;DHT22;13107;51.304;6.866;2023-06-26T23:07:42;13.30;99.90
25128;DHT22;13107;51.304;6.866;2023-06-26T23:11:44;13.20;99.90
25128;DHT22;13107;51.304;6.866;2023-06-26T23:15:46;13.10;99.90
25128;DHT22;13107;51.304;6.866;2023-06-26T23:19:48;13.00;99.90
25128;DHT22;13107;51.304;6.866;2023-06-26T23:23:50;13.00;99.90
25128;DHT22;13107;51.304;6.866;2023-06-26T23:27:54;12.90;99.90
25128;DHT22;13107;51.304;6.866;2023-06-26T23:32:02;12.80;99.90
25128;DHT22;13107;51.304;6.866;2023-06-26T23:36:08;12.80;99.90
25128;DHT22;13107;51.304;6.866;2023-06-26T23:40:11;12.70;99.90
25128;DHT22;13107;51.304;6.866;2023-06-26T23:44:13;12.70;99.90
25128;DHT22;13107;51.304;6.866;2023-06-26T23:48:15;12.70;99.90
25128;DHT22;13107;51.304;6.866;2023-06-26T23:52:17;12.70;99.90
25128;DHT22;13107;51.304;6.866;2023-06-26T23:56:19;12.60;99.90
